Vienna, South Dakota
Current Conditions -  °F | °C
As of 9:53 AM on Friday 19 Dec 2014 (Local Time) from KATY Reporting Station
Haze Haze  
Wind Chill: 13°   Ceiling: 300
Heat Index: 26°   Visibility: 2.5mi
Dew Point: 25°   Wind: 18mph
Humidity: 96%   Direction: 200°SSW
Pressure: 30.07"   Gusts: 23mph
Location:  44.7°N, 97.5°W
Report Text: KATY 191553Z AUTO 20016G20KT 2 1/2SM BR OVC003 M03/M04 A3007 RMK AO2 SLP208 T10331039
Loading
Personal Weather Stations






























Interactive Weather Map New forecast layout! Learn more

10-Day Weather Forecast

Advertisements
Track Severe Weather on mobile